Time;durP1;ratioP1;P1;durP2;ratioP2;P2;SDS_P1;SDS_P2;PMS_P1;PMS_P2;Temp;Humidity;BMP_temperature;BMP_pressure;BME280_temperature;BME280_humidity;BME280_pressure;Samples;Min_cycle;Max_cycle;Signal;HPM_P1;HPM_P2
2024/01/18 00:00:07;;;;;;;21.27;18.00;;;;;;;-0.19;83.04;98337.50;5068017;28;20208;-80
2024/01/18 00:02:34;;;;;;;23.13;16.70;;;;;;;-0.22;84.35;98320.41;5075015;28;20205;-80
2024/01/18 00:05:00;;;;;;;22.00;17.93;;;;;;;-0.45;85.37;98316.34;5074459;28;20200;-80
2024/01/18 00:07:27;;;;;;;21.20;17.53;;;;;;;-0.65;85.58;98303.72;5074601;28;20232;-79
2024/01/18 00:09:53;;;;;;;21.73;17.97;;;;;;;-0.70;86.22;98299.50;5074364;28;20201;-80
2024/01/18 00:12:19;;;;;;;19.93;17.63;;;;;;;-0.74;86.88;98282.44;5074434;28;20232;-79
2024/01/18 00:14:46;;;;;;;22.47;17.63;;;;;;;-0.71;86.78;98264.50;5074462;28;20209;-80
2024/01/18 00:17:13;;;;;;;24.27;17.87;;;;;;;-0.61;86.61;98261.00;5074926;28;20228;-80
2024/01/18 00:19:40;;;;;;;20.23;18.07;;;;;;;-0.74;86.25;98267.09;5072332;28;20258;-80
2024/01/18 00:22:06;;;;;;;23.67;19.03;;;;;;;-0.50;85.17;98259.16;5067693;28;20208;-79
2024/01/18 00:24:32;;;;;;;25.63;17.83;;;;;;;-0.48;84.63;98270.25;5075435;28;20631;-80
2024/01/18 00:27:00;;;;;;;19.37;17.17;;;;;;;-0.42;84.31;98280.47;5078678;28;20304;-79
2024/01/18 00:29:26;;;;;;;20.10;17.57;;;;;;;-0.21;83.66;98288.78;5078596;28;20670;-79
2024/01/18 00:31:53;;;;;;;22.43;18.13;;;;;;;0.09;83.29;98309.84;5062276;28;20207;-80
2024/01/18 00:34:21;;;;;;;25.80;18.07;;;;;;;0.31;81.99;98348.91;5077294;28;20260;-80
2024/01/18 00:36:49;;;;;;;19.90;17.40;;;;;;;0.25;81.53;98382.34;5077701;28;20229;-80
2024/01/18 00:39:18;;;;;;;19.30;17.40;;;;;;;-0.05;81.44;98413.41;5077860;28;20655;-80
2024/01/18 00:41:45;;;;;;;24.07;16.70;;;;;;;0.04;82.31;98406.47;5078128;28;20247;-80
2024/01/18 00:44:11;;;;;;;20.13;18.13;;;;;;;0.33;81.60;98389.09;5078307;28;20223;-80
2024/01/18 00:46:38;;;;;;;23.27;18.13;;;;;;;0.44;80.43;98421.47;5092178;28;20274;-80
2024/01/18 00:49:04;;;;;;;20.10;18.03;;;;;;;0.34;79.70;98454.09;5077759;28;20213;-80
2024/01/18 00:51:32;;;;;;;21.17;17.27;;;;;;;0.56;79.33;98468.41;5071086;28;20236;-79
2024/01/18 00:53:58;;;;;;;20.27;18.10;;;;;;;0.29;78.95;98500.31;5078367;28;20271;-80
2024/01/18 00:56:25;;;;;;;19.30;16.83;;;;;;;0.17;79.07;98514.09;5078717;28;20239;-80
2024/01/18 00:58:51;;;;;;;18.77;16.87;;;;;;;0.08;78.89;98527.03;5078262;28;20636;-80
2024/01/18 01:01:18;;;;;;;21.60;18.27;;;;;;;0.04;79.88;98530.47;5078147;28;20213;-80
2024/01/18 01:03:44;;;;;;;21.63;17.20;;;;;;;0.38;79.38;98528.47;5077358;28;20226;-80
2024/01/18 01:06:11;;;;;;;19.57;17.43;;;;;;;0.25;79.19;98541.41;5079334;28;20220;-80
2024/01/18 01:08:39;;;;;;;19.53;17.53;;;;;;;0.08;79.97;98533.84;5078731;28;20299;-80
2024/01/18 01:11:05;;;;;;;21.23;18.93;;;;;;;0.09;79.61;98527.84;5078575;28;20236;-80
2024/01/18 01:13:32;;;;;;;28.50;19.10;;;;;;;0.13;80.06;98534.66;5077460;28;20228;-80
2024/01/18 01:15:59;;;;;;;21.77;18.63;;;;;;;0.05;80.72;98539.00;5061541;28;20784;-80
2024/01/18 01:18:25;;;;;;;21.13;18.80;;;;;;;0.15;80.15;98538.06;5077339;28;20784;-80
2024/01/18 01:20:51;;;;;;;18.97;17.07;;;;;;;-0.14;81.10;98534.03;5070726;28;20200;-80
2024/01/18 01:23:18;;;;;;;25.93;18.50;;;;;;;-0.26;80.91;98523.81;5063513;28;20240;-80
2024/01/18 01:25:45;;;;;;;20.90;18.50;;;;;;;-0.37;81.85;98511.09;5075934;28;20205;-80
2024/01/18 01:28:12;;;;;;;23.17;20.27;;;;;;;-0.32;82.18;98500.78;5078083;28;20205;-79
2024/01/18 01:30:38;;;;;;;26.00;20.27;;;;;;;-0.30;82.60;98483.69;5077558;28;20267;-80
2024/01/18 01:33:05;;;;;;;23.90;19.67;;;;;;;-0.34;82.76;98471.75;5077008;28;20224;-80
2024/01/18 01:35:31;;;;;;;25.20;19.67;;;;;;;-0.37;82.71;98472.63;5076512;28;20205;-80
2024/01/18 01:37:57;;;;;;;24.70;19.67;;;;;;;-0.39;82.58;98482.06;5058441;28;20229;-80
2024/01/18 01:40:24;;;;;;;27.63;20.13;;;;;;;-0.49;82.62;98488.94;5064635;28;20701;-80
2024/01/18 01:42:52;;;;;;;22.00;19.60;;;;;;;-0.25;82.29;98481.94;5074744;28;20209;-80
2024/01/18 01:45:18;;;;;;;21.90;19.70;;;;;;;-0.01;82.62;98489.44;5064209;28;20217;-81
2024/01/18 01:47:44;;;;;;;24.77;20.00;;;;;;;0.24;80.99;98489.25;5077547;28;20224;-80
2024/01/18 01:50:11;;;;;;;22.90;18.50;;;;;;;0.14;80.04;98521.84;5071384;28;20738;-80
2024/01/18 01:52:39;;;;;;;24.73;20.33;;;;;;;0.00;79.80;98541.63;5074161;28;20212;-80
2024/01/18 01:55:07;;;;;;;20.70;18.50;;;;;;;-0.22;80.65;98552.00;5076724;28;20200;-80
2024/01/18 01:57:34;;;;;;;21.43;19.23;;;;;;;-0.03;80.98;98551.88;5078034;28;20764;-80
2024/01/18 02:03:22;;;;;;;23.27;19.30;;;;;;;0.22;80.05;98572.22;5060367;28;20239;-81
2024/01/18 02:05:48;;;;;;;23.37;19.23;;;;;;;0.34;78.92;98587.53;5077359;28;20270;-80
2024/01/18 02:08:15;;;;;;;21.53;18.87;;;;;;;-0.07;79.68;98624.56;5076910;28;20205;-80
2024/01/18 02:10:42;;;;;;;22.53;18.50;;;;;;;-0.26;80.49;98617.00;5077115;28;20265;-80
2024/01/18 02:13:09;;;;;;;22.00;19.60;;;;;;;-0.18;80.74;98605.81;5077164;28;20251;-80
2024/01/18 02:15:35;;;;;;;22.60;19.97;;;;;;;-0.15;81.17;98580.19;5077156;28;20258;-80
2024/01/18 02:18:02;;;;;;;23.27;20.80;;;;;;;-0.28;81.57;98580.25;5077536;28;20248;-80
2024/01/18 02:20:29;;;;;;;22.43;20.20;;;;;;;-0.13;81.61;98561.34;5076859;28;20224;-81
2024/01/18 02:22:57;;;;;;;22.67;20.10;;;;;;;-0.04;81.35;98568.13;5060659;28;20628;-80
2024/01/18 02:25:27;;;;;;;23.17;20.23;;;;;;;-0.17;81.08;98564.78;5070804;28;20205;-80
2024/01/18 02:27:55;;;;;;;28.20;19.97;;;;;;;-0.28;80.58;98574.25;5058545;28;20225;-80
2024/01/18 02:30:21;;;;;;;21.77;19.47;;;;;;;-0.23;81.16;98575.09;5076658;28;20697;-79
2024/01/18 02:32:48;;;;;;;21.73;19.50;;;;;;;0.12;80.89;98568.88;5077166;28;20258;-80
2024/01/18 02:35:15;;;;;;;22.67;20.43;;;;;;;0.03;80.09;98580.06;5076888;28;20212;-80
2024/01/18 02:37:42;;;;;;;25.33;19.20;;;;;;;-0.07;80.77;98583.53;5076996;28;20229;-80
2024/01/18 02:40:09;;;;;;;24.17;19.63;;;;;;;0.00;80.25;98592.91;5076540;28;20208;-80
2024/01/18 02:42:37;;;;;;;26.47;20.63;;;;;;;0.14;79.94;98598.78;5076743;28;20208;-80
2024/01/18 02:45:03;;;;;;;21.47;19.30;;;;;;;0.06;79.43;98620.22;5060746;28;20201;-80
2024/01/18 02:47:30;;;;;;;21.47;19.23;;;;;;;-0.24;80.40;98630.66;5076462;28;20228;-80
2024/01/18 02:49:57;;;;;;;26.57;19.90;;;;;;;-0.08;79.68;98617.72;5075785;28;20200;-80
2024/01/18 02:52:23;;;;;;;23.27;19.07;;;;;;;-0.27;80.59;98617.84;5077255;28;20205;-80
2024/01/18 02:54:50;;;;;;;23.90;21.40;;;;;;;-0.31;80.87;98610.16;5066088;28;20232;-80
2024/01/18 02:57:16;;;;;;;24.13;20.37;;;;;;;-0.18;80.98;98588.72;5070354;28;20255;-80
2024/01/18 02:59:44;;;;;;;22.60;19.70;;;;;;;-0.28;80.53;98593.06;5067427;28;20201;-80
2024/01/18 03:02:10;;;;;;;23.53;19.70;;;;;;;-0.29;80.91;98593.06;5070199;28;20201;-80
2024/01/18 03:04:36;;;;;;;22.37;19.97;;;;;;;-0.13;81.42;98592.13;5076570;28;20200;-80
2024/01/18 03:07:03;;;;;;;22.53;20.13;;;;;;;-0.13;81.51;98581.84;5077043;28;20603;-80
2024/01/18 03:09:29;;;;;;;30.13;19.80;;;;;;;-0.32;81.81;98585.38;5076649;28;20205;-80
2024/01/18 03:11:55;;;;;;;26.60;20.80;;;;;;;-0.13;81.91;98571.59;5077065;28;20212;-80
2024/01/18 03:14:22;;;;;;;25.00;21.90;;;;;;;-0.10;81.12;98566.47;5065154;28;20228;-80
2024/01/18 03:16:50;;;;;;;24.30;20.13;;;;;;;-0.07;81.25;98578.41;5080154;28;20233;-79
2024/01/18 03:19:16;;;;;;;24.67;20.60;;;;;;;-0.08;80.54;98582.69;5089862;28;20209;-80
2024/01/18 03:21:42;;;;;;;23.07;20.57;;;;;;;0.16;79.89;98596.22;5091540;28;20673;-79
2024/01/18 03:24:09;;;;;;;23.17;20.10;;;;;;;0.17;80.17;98603.88;5091619;28;20254;-79
2024/01/18 03:26:35;;;;;;;25.53;20.33;;;;;;;0.28;80.11;98608.09;5091870;28;20232;-80
2024/01/18 03:29:02;;;;;;;28.73;20.40;;;;;;;0.42;79.69;98618.25;5075425;28;20207;-80
2024/01/18 03:31:28;;;;;;;21.10;18.77;;;;;;;0.17;77.88;98656.91;5060566;28;20695;-80
2024/01/18 03:33:58;;;;;;;20.67;18.40;;;;;;;-0.04;78.48;98665.56;5073953;28;20290;-81
2024/01/18 03:36:30;;;;;;;20.70;18.57;;;;;;;-0.16;78.89;98665.63;5075881;28;20229;-80
2024/01/18 03:39:02;;;;;;;24.30;18.07;;;;;;;-0.24;79.55;98670.78;5076254;28;20239;-80
2024/01/18 03:41:32;;;;;;;23.13;18.53;;;;;;;-0.18;79.21;98663.06;5076406;28;20212;-81
2024/01/18 03:44:07;;;;;;;20.73;18.10;;;;;;;-0.23;79.21;98665.66;5075780;28;20723;-81
2024/01/18 03:46:33;;;;;;;21.13;18.93;;;;;;;-0.15;79.22;98673.31;5075978;28;20220;-80
2024/01/18 03:49:06;;;;;;;25.47;18.40;;;;;;;-0.12;79.19;98670.75;5075633;28;20223;-81
2024/01/18 03:51:39;;;;;;;22.80;18.40;;;;;;;-0.09;79.08;98673.31;5075745;28;20232;-80
2024/01/18 03:54:05;;;;;;;18.97;17.27;;;;;;;-0.18;79.00;98673.31;5075655;28;20232;-81
2024/01/18 03:56:32;;;;;;;19.20;17.40;;;;;;;-0.18;79.48;98675.03;5075921;28;20220;-80
2024/01/18 03:59:00;;;;;;;19.43;17.37;;;;;;;0.03;79.76;98662.13;5073881;28;20414;-80
2024/01/18 04:01:31;;;;;;;25.33;17.97;;;;;;;0.06;79.24;98657.00;5076137;28;20678;-81
2024/01/18 04:03:57;;;;;;;23.10;18.10;;;;;;;0.34;79.68;98649.97;5066248;28;20231;-80
2024/01/18 04:06:29;;;;;;;24.20;18.33;;;;;;;0.48;80.33;98644.75;5070263;28;20648;-81
2024/01/18 04:09:02;;;;;;;18.97;17.07;;;;;;;0.57;79.34;98643.81;5075466;28;20205;-80
2024/01/18 04:11:32;;;;;;;18.20;16.33;;;;;;;0.51;77.96;98666.97;5074584;28;20675;-80
2024/01/18 04:14:04;;;;;;;20.97;17.37;;;;;;;0.61;77.24;98701.97;5074391;28;20575;-81
2024/01/18 04:16:34;;;;;;;23.63;17.50;;;;;;;0.71;76.77;98724.16;5074938;28;20228;-81
2024/01/18 04:19:06;;;;;;;20.50;17.47;;;;;;;0.61;75.80;98750.75;5072468;28;20250;-81
2024/01/18 04:21:38;;;;;;;20.60;18.30;;;;;;;0.36;76.66;98773.16;5061239;28;20201;-80
2024/01/18 04:24:07;;;;;;;24.13;17.97;;;;;;;0.50;76.72;98768.81;5074163;28;20220;-80
2024/01/18 04:26:39;;;;;;;22.77;18.00;;;;;;;0.30;76.88;98771.47;5059544;28;20226;-81
2024/01/18 04:29:07;;;;;;;25.30;19.03;;;;;;;0.16;77.81;98768.97;5062293;28;20213;-81
2024/01/18 04:31:44;;;;;;;23.93;18.53;;;;;;;-0.04;77.99;98757.91;5069377;28;20261;-80
2024/01/18 04:34:13;;;;;;;21.07;17.97;;;;;;;0.08;78.25;98737.34;5073335;28;20338;-80
2024/01/18 04:36:47;;;;;;;21.93;19.13;;;;;;;0.19;78.42;98714.22;5074059;28;20221;-80
2024/01/18 04:39:16;;;;;;;21.30;18.60;;;;;;;0.33;78.23;98720.13;5058064;28;20765;-80
2024/01/18 04:41:48;;;;;;;21.37;18.13;;;;;;;0.41;77.59;98720.06;5075190;28;20205;-81
2024/01/18 04:44:18;;;;;;;21.57;18.60;;;;;;;0.47;78.26;98727.72;5070254;28;20202;-80
2024/01/18 04:46:50;;;;;;;23.73;18.40;;;;;;;0.44;78.65;98720.06;5062218;28;20225;-81
2024/01/18 04:49:21;;;;;;;21.60;19.20;;;;;;;0.45;78.19;98731.19;5074042;28;20287;-81
2024/01/18 04:51:51;;;;;;;20.13;18.07;;;;;;;0.45;78.24;98721.75;5074115;28;20656;-80
2024/01/18 04:54:26;;;;;;;20.47;17.70;;;;;;;0.22;77.76;98744.13;5078115;28;20239;-80
2024/01/18 04:56:56;;;;;;;24.07;18.80;;;;;;;0.16;78.28;98745.03;5079809;28;20636;-80
2024/01/18 04:59:24;;;;;;;22.10;18.50;;;;;;;-0.14;78.99;98746.84;5067267;28;20209;-80
2024/01/18 05:01:56;;;;;;;25.83;19.50;;;;;;;-0.16;80.13;98722.91;5074983;28;20714;-80
2024/01/18 05:04:22;;;;;;;24.97;19.67;;;;;;;-0.18;80.03;98711.78;5073355;28;20201;-80
2024/01/18 05:06:50;;;;;;;24.30;20.47;;;;;;;-0.17;81.24;98694.72;5073700;28;20225;-80
2024/01/18 05:09:17;;;;;;;26.70;19.57;;;;;;;-0.29;81.47;98686.19;5058638;28;20226;-81
2024/01/18 05:11:47;;;;;;;28.13;20.60;;;;;;;-0.26;80.79;98673.38;5076285;28;20201;-81
2024/01/18 05:14:16;;;;;;;24.60;19.90;;;;;;;-0.24;81.17;98663.09;5078987;28;20593;-80
2024/01/18 05:16:43;;;;;;;26.70;20.57;;;;;;;-0.08;81.13;98651.06;5078021;28;20605;-80
2024/01/18 05:19:10;;;;;;;26.17;20.13;;;;;;;0.23;82.35;98638.91;5077046;28;20208;-80
2024/01/18 05:21:36;;;;;;;26.07;20.00;;;;;;;0.45;81.72;98623.38;5078709;28;20213;-80
2024/01/18 05:24:10;;;;;;;28.17;21.30;;;;;;;0.45;79.89;98626.78;5077972;28;20828;-80
2024/01/18 05:26:39;;;;;;;24.53;19.70;;;;;;;0.62;80.36;98649.78;5077545;28;20221;-81
2024/01/18 05:29:06;;;;;;;23.23;20.57;;;;;;;0.69;79.87;98674.53;5065060;28;20205;-80
2024/01/18 05:31:33;;;;;;;23.40;20.13;;;;;;;0.35;79.55;98700.44;5071976;28;20207;-80
2024/01/18 05:33:59;;;;;;;25.60;20.90;;;;;;;0.22;79.89;98713.34;5076810;28;20197;-80
2024/01/18 05:36:29;;;;;;;23.10;20.67;;;;;;;0.19;79.95;98704.78;5077079;28;20725;-80
2024/01/18 05:39:04;;;;;;;21.70;19.07;;;;;;;0.49;80.14;98702.91;5076629;28;20251;-80
2024/01/18 05:41:32;;;;;;;24.10;19.33;;;;;;;0.58;79.51;98707.16;5077291;28;20281;-80
2024/01/18 05:44:03;;;;;;;22.73;19.60;;;;;;;0.60;80.33;98713.13;5076820;28;20254;-80
2024/01/18 05:46:34;;;;;;;27.07;19.77;;;;;;;0.71;79.87;98708.75;5077159;28;20676;-81
2024/01/18 05:49:04;;;;;;;25.63;20.80;;;;;;;0.76;79.79;98717.28;5066764;28;20232;-81
2024/01/18 05:51:34;;;;;;;22.10;19.80;;;;;;;0.66;77.97;98737.91;5077096;28;20983;-81
2024/01/18 05:54:01;;;;;;;22.57;20.27;;;;;;;0.58;77.73;98758.50;5076936;28;20208;-80
2024/01/18 05:56:27;;;;;;;23.67;21.17;;;;;;;0.33;78.30;98789.41;5076988;28;20572;-80
2024/01/18 05:58:58;;;;;;;24.20;19.77;;;;;;;0.24;78.33;98778.31;5065567;28;20250;-80
2024/01/18 06:01:26;;;;;;;25.97;21.10;;;;;;;0.27;78.49;98781.72;5065627;28;20201;-80
2024/01/18 06:03:59;;;;;;;28.23;21.63;;;;;;;0.14;79.66;98782.63;5064522;28;20204;-80
2024/01/18 06:06:25;;;;;;;28.50;22.53;;;;;;;-0.06;79.86;98764.75;5078319;28;20221;-80
2024/01/18 06:08:52;;;;;;;24.93;21.40;;;;;;;0.26;80.36;98745.81;5077457;28;20283;-79
2024/01/18 06:11:19;;;;;;;29.00;21.90;;;;;;;0.30;79.96;98742.41;5061662;28;20201;-81
2024/01/18 06:13:50;;;;;;;27.43;21.80;;;;;;;0.02;80.21;98752.78;5078254;28;20197;-81
2024/01/18 06:16:20;;;;;;;26.60;21.37;;;;;;;-0.05;80.63;98751.09;5077244;28;20228;-81
2024/01/18 06:18:53;;;;;;;29.77;22.73;;;;;;;0.17;80.88;98741.59;5069278;28;20232;-80
2024/01/18 06:21:21;;;;;;;31.17;22.17;;;;;;;0.12;81.07;98749.31;5061081;28;20219;-80
2024/01/18 06:23:49;;;;;;;28.90;21.93;;;;;;;-0.05;81.29;98751.09;5075858;28;20679;-80
2024/01/18 06:26:15;;;;;;;28.43;22.80;;;;;;;-0.28;82.37;98730.63;5075710;28;20286;-80
2024/01/18 06:28:42;;;;;;;30.87;23.33;;;;;;;-0.13;82.44;98702.38;5058347;28;20202;-80
2024/01/18 06:31:14;;;;;;;31.40;22.80;;;;;;;-0.09;82.06;98692.97;5056613;28;20248;-80
2024/01/18 06:33:45;;;;;;;25.03;21.70;;;;;;;-0.08;82.65;98689.53;5071162;28;20200;-80
2024/01/18 06:36:19;;;;;;;30.97;23.47;;;;;;;-0.06;83.58;98675.00;5077535;28;20225;-80
2024/01/18 06:38:48;;;;;;;24.80;22.10;;;;;;;-0.12;83.60;98667.31;5079036;28;20205;-79
2024/01/18 06:41:19;;;;;;;31.10;23.60;;;;;;;-0.15;82.75;98678.47;5085770;28;20210;-80
2024/01/18 06:43:50;;;;;;;36.40;25.50;;;;;;;-0.29;83.24;98686.19;5076192;28;20625;-79
2024/01/18 06:46:21;;;;;;;32.83;24.63;;;;;;;-0.33;84.29;98678.53;5075171;28;20221;-79
2024/01/18 06:48:53;;;;;;;34.10;24.83;;;;;;;-0.23;84.44;98655.41;5074286;28;20193;-79
2024/01/18 06:51:22;;;;;;;30.03;23.47;;;;;;;-0.38;84.09;98660.59;5076236;28;20201;-79
2024/01/18 06:53:52;;;;;;;34.27;23.90;;;;;;;-0.18;83.85;98660.50;5076068;28;20718;-79
2024/01/18 06:56:18;;;;;;;30.80;23.83;;;;;;;-0.06;83.66;98655.34;5075744;28;20232;-79
2024/01/18 06:58:45;;;;;;;29.87;24.67;;;;;;;-0.02;84.22;98664.72;5068926;28;20273;-78
2024/01/18 07:01:13;;;;;;;32.13;23.37;;;;;;;0.12;83.82;98656.09;5065865;28;20205;-79
2024/01/18 07:03:41;;;;;;;30.73;22.40;;;;;;;0.09;82.89;98679.19;5069480;28;20197;-78
2024/01/18 07:06:12;;;;;;;30.47;24.27;;;;;;;-0.11;83.36;98692.13;5058355;28;20225;-79
2024/01/18 07:08:40;;;;;;;33.60;24.20;;;;;;;0.05;83.06;98688.63;5075333;28;20301;-79
2024/01/18 07:11:07;;;;;;;31.37;23.63;;;;;;;0.16;83.61;98686.88;5075159;28;20208;-78
2024/01/18 07:13:33;;;;;;;29.07;22.80;;;;;;;0.23;82.43;98700.50;5075101;28;20208;-79
2024/01/18 07:16:06;;;;;;;28.67;23.77;;;;;;;0.04;82.17;98727.09;5074508;28;20220;-79
2024/01/18 07:18:35;;;;;;;31.67;23.30;;;;;;;0.06;82.64;98731.38;5074797;28;20196;-78
2024/01/18 07:21:01;;;;;;;26.13;22.50;;;;;;;0.09;83.21;98733.06;5075212;28;20211;-79
2024/01/18 07:23:29;;;;;;;32.17;24.50;;;;;;;0.12;83.55;98726.22;5074419;28;20205;-78
2024/01/18 07:25:55;;;;;;;30.30;24.60;;;;;;;0.29;82.67;98717.59;5074446;28;20644;-78
2024/01/18 07:28:24;;;;;;;27.23;23.70;;;;;;;0.21;81.43;98742.44;5066165;28;20200;-79
2024/01/18 07:30:50;;;;;;;31.83;23.93;;;;;;;0.01;81.51;98766.44;5067648;28;20255;-79
2024/01/18 07:33:17;;;;;;;27.80;22.93;;;;;;;0.02;82.20;98777.56;5064785;28;20249;-78
2024/01/18 07:35:43;;;;;;;29.40;24.70;;;;;;;-0.46;83.03;98795.59;5074086;28;20229;-78
2024/01/18 07:38:10;;;;;;;32.90;25.40;;;;;;;-0.55;83.88;98772.56;5073695;28;20580;-78
2024/01/18 07:40:37;;;;;;;32.10;24.07;;;;;;;-0.42;84.21;98739.22;5072711;28;20201;-77
2024/01/18 07:43:04;;;;;;;27.63;23.67;;;;;;;-0.08;83.96;98723.75;5072846;28;20258;-78
2024/01/18 07:45:33;;;;;;;33.13;24.67;;;;;;;0.09;82.80;98728.78;5072655;28;20672;-78
2024/01/18 07:48:00;;;;;;;30.37;25.10;;;;;;;-0.28;82.35;98757.16;5072588;28;20282;-78
2024/01/18 07:50:27;;;;;;;37.90;25.77;;;;;;;-0.39;83.30;98758.03;5072271;28;20207;-77
2024/01/18 07:52:53;;;;;;;29.43;23.63;;;;;;;-0.13;83.21;98755.38;5074020;28;20683;-78
2024/01/18 07:55:21;;;;;;;29.27;22.97;;;;;;;-0.27;82.58;98761.41;5075119;28;20611;-79
2024/01/18 07:57:48;;;;;;;28.77;23.07;;;;;;;-0.14;82.63;98772.50;5070504;28;20217;-78
2024/01/18 08:00:16;;;;;;;31.77;24.17;;;;;;;-0.30;82.68;98784.47;5073927;28;20204;-78
2024/01/18 08:02:42;;;;;;;29.50;22.23;;;;;;;-0.26;82.79;98788.75;5075178;28;20266;-78
2024/01/18 08:05:08;;;;;;;32.27;24.43;;;;;;;-0.15;82.41;98788.72;5074799;28;20227;-79
2024/01/18 08:07:35;;;;;;;31.07;24.30;;;;;;;-0.27;82.79;98801.56;5072697;28;20221;-80
2024/01/18 08:10:01;;;;;;;30.87;24.00;;;;;;;-0.27;82.90;98810.09;5063906;28;20205;-80
2024/01/18 08:12:28;;;;;;;29.53;23.93;;;;;;;-0.22;82.46;98810.97;5060016;28;20201;-80
2024/01/18 08:14:55;;;;;;;35.13;25.77;;;;;;;-0.45;82.57;98818.69;5067478;28;20237;-80
2024/01/18 08:17:22;;;;;;;36.77;23.97;;;;;;;-0.20;82.71;98810.94;5066153;28;20228;-80
2024/01/18 08:19:48;;;;;;;36.93;24.50;;;;;;;-0.20;82.19;98816.06;5075205;28;20258;-79
2024/01/18 08:22:15;;;;;;;36.50;27.23;;;;;;;-0.35;82.39;98823.81;5075276;28;20200;-80
2024/01/18 08:24:42;;;;;;;32.83;24.70;;;;;;;-0.34;82.82;98817.81;5076391;28;20258;-80
2024/01/18 08:27:09;;;;;;;31.80;23.63;;;;;;;-0.22;82.76;98812.66;5074868;28;20228;-79
2024/01/18 08:29:37;;;;;;;32.60;23.60;;;;;;;-0.28;82.54;98817.78;5067914;28;20203;-80
2024/01/18 08:32:05;;;;;;;30.87;24.23;;;;;;;-0.24;82.08;98822.06;5075792;28;20672;-81
2024/01/18 08:34:31;;;;;;;31.53;25.00;;;;;;;-0.43;82.41;98819.53;5058374;28;20236;-80
2024/01/18 08:36:58;;;;;;;38.07;25.00;;;;;;;-0.49;82.95;98827.22;5076635;28;20228;-79
2024/01/18 08:39:24;;;;;;;32.63;24.77;;;;;;;-0.72;83.93;98824.66;5076027;28;20209;-80
2024/01/18 08:41:50;;;;;;;33.73;26.93;;;;;;;-0.79;84.94;98807.59;5075959;28;20206;-80
2024/01/18 08:44:19;;;;;;;42.60;26.40;;;;;;;-0.77;84.87;98776.81;5075035;28;20231;-80
2024/01/18 08:46:46;;;;;;;36.67;26.93;;;;;;;-0.82;85.40;98767.44;5072644;28;20225;-79
2024/01/18 08:49:14;;;;;;;32.10;25.43;;;;;;;-0.86;85.76;98764.88;5059999;28;20668;-79
2024/01/18 08:51:41;;;;;;;39.23;26.67;;;;;;;-0.84;86.70;98746.09;5072659;28;20671;-80
2024/01/18 08:54:10;;;;;;;41.60;26.10;;;;;;;-0.86;86.88;98735.00;5078685;28;20250;-79
2024/01/18 08:56:40;;;;;;;39.25;30.67;;;;;;;-0.75;86.55;98723.88;5073457;28;20509;-80
2024/01/18 08:59:06;;;;;;;32.90;27.17;;;;;;;-0.93;86.60;98730.75;5058727;28;20672;-79
2024/01/18 09:01:33;;;;;;;33.80;26.50;;;;;;;-1.02;87.04;98728.19;5071251;28;20193;-79
2024/01/18 09:04:00;;;;;;;39.47;26.03;;;;;;;-1.08;87.25;98717.94;5077905;28;20200;-79
2024/01/18 09:06:28;;;;;;;39.87;27.27;;;;;;;-1.02;87.34;98700.03;5078240;28;20271;-79
2024/01/18 09:08:54;;;;;;;39.87;26.20;;;;;;;-1.09;87.89;98705.97;5078042;28;20205;-79
2024/01/18 09:11:21;;;;;;;37.87;26.53;;;;;;;-1.14;88.72;98690.63;5078041;28;20209;-80
2024/01/18 09:13:47;;;;;;;39.77;27.37;;;;;;;-1.12;88.27;98681.25;5078302;28;20240;-79
2024/01/18 09:16:16;;;;;;;39.93;27.67;;;;;;;-1.19;89.01;98687.22;5078062;28;20225;-81
2024/01/18 09:18:42;;;;;;;39.97;28.47;;;;;;;-1.27;89.43;98674.44;5076213;28;20203;-78
2024/01/18 09:21:09;;;;;;;36.83;27.17;;;;;;;-1.03;89.02;98659.88;5062990;28;20205;-79
2024/01/18 09:23:37;;;;;;;42.13;29.10;;;;;;;-1.20;89.04;98668.44;5059409;28;20616;-78
2024/01/18 09:26:04;;;;;;;39.43;29.13;;;;;;;-1.18;89.32;98662.47;5069128;22;20237;-78
2024/01/18 09:28:30;;;;;;;46.53;28.67;;;;;;;-1.04;89.54;98655.63;5076295;28;20263;-77
2024/01/18 09:30:57;;;;;;;40.83;27.67;;;;;;;-1.15;89.91;98659.91;5074746;28;20213;-79
2024/01/18 09:33:23;;;;;;;37.57;26.63;;;;;;;-1.00;90.31;98658.19;5076737;28;20296;-77
2024/01/18 09:35:51;;;;;;;39.63;28.53;;;;;;;-0.91;89.92;98659.91;5083359;28;20225;-77
2024/01/18 09:38:19;;;;;;;44.30;28.47;;;;;;;-0.82;89.66;98677.78;5083266;28;20197;-78
2024/01/18 09:40:47;;;;;;;45.10;29.07;;;;;;;-0.87;89.48;98688.91;5081954;28;20203;-77
2024/01/18 09:43:17;;;;;;;49.97;30.27;;;;;;;-0.97;89.77;98694.88;5078274;28;20564;-77
2024/01/18 09:45:48;;;;;;;40.57;28.47;;;;;;;-0.82;90.25;98689.75;5075924;28;20207;-77
2024/01/18 09:48:15;;;;;;;38.53;28.37;;;;;;;-0.74;89.59;98690.59;5074112;28;20211;-76
2024/01/18 09:50:44;;;;;;;42.27;29.10;;;;;;;-0.68;89.69;98685.44;5077285;28;20663;-77
2024/01/18 09:53:11;;;;;;;39.50;28.23;;;;;;;-0.53;89.45;98697.38;5076226;28;20686;-78
2024/01/18 09:55:41;;;;;;;42.57;29.40;;;;;;;-0.65;89.63;98699.97;5095442;28;20224;-78
2024/01/18 09:58:12;;;;;;;46.30;29.03;;;;;;;-0.52;89.40;98703.34;5089391;28;20204;-79
2024/01/18 10:00:42;;;;;;;37.60;28.57;;;;;;;-0.74;90.13;98712.78;5087838;28;20239;-78
2024/01/18 10:03:09;;;;;;;43.87;29.97;;;;;;;-0.68;89.93;98703.38;5095653;28;20269;-79
2024/01/18 10:05:36;;;;;;;40.00;28.23;;;;;;;-0.75;90.65;98700.84;5091045;28;20196;-80
2024/01/18 10:08:03;;;;;;;44.20;28.80;;;;;;;-0.56;90.70;98692.25;5080785;28;20271;-78
2024/01/18 10:10:32;;;;;;;50.43;36.43;;;;;;;-0.45;89.95;98694.81;5094922;28;20218;-78
2024/01/18 10:13:01;;;;;;;39.90;27.00;;;;;;;-0.42;89.97;98705.03;5096476;28;20570;-77
2024/01/18 10:15:33;;;;;;;36.70;24.60;;;;;;;-0.46;89.62;98716.16;5095879;28;20257;-77
2024/01/18 10:18:01;;;;;;;30.43;24.83;;;;;;;-0.26;89.54;98714.41;5094588;28;20258;-77
2024/01/18 10:20:27;;;;;;;38.30;24.47;;;;;;;-0.41;88.50;98738.34;5086013;28;20204;-77
2024/01/18 10:22:56;;;;;;;56.57;36.67;;;;;;;-0.39;89.07;98740.09;5094967;28;20219;-77
2024/01/18 10:25:24;;;;;;;40.97;27.17;;;;;;;-0.33;89.71;98732.38;5095421;28;20204;-77
2024/01/18 10:27:54;;;;;;;29.00;25.13;;;;;;;-0.40;89.42;98739.22;5087573;28;20242;-77
2024/01/18 10:30:21;;;;;;;33.83;24.47;;;;;;;-0.35;89.34;98741.78;5084277;28;20251;-77
2024/01/18 10:32:49;;;;;;;35.90;25.03;;;;;;;-0.22;89.54;98740.88;5095201;28;20231;-77
2024/01/18 10:35:20;;;;;;;28.97;23.80;;;;;;;-0.23;89.81;98742.59;5086946;28;20207;-77
2024/01/18 10:37:47;;;;;;;30.20;24.90;;;;;;;-0.07;88.97;98750.22;5104042;28;20302;-77
2024/01/18 10:40:18;;;;;;;31.77;25.27;;;;;;;-0.07;88.96;98745.09;5103517;28;20204;-78
2024/01/18 10:42:45;;;;;;;29.27;23.43;;;;;;;-0.02;89.46;98758.75;5104622;28;20204;-77
2024/01/18 10:45:12;;;;;;;21.90;18.13;;;;;;;0.00;89.41;98764.75;5104040;28;20200;-77
2024/01/18 10:47:39;;;;;;;23.53;20.23;;;;;;;0.09;89.32;98779.25;5094316;28;20284;-77
2024/01/18 10:50:10;;;;;;;22.90;20.23;;;;;;;0.13;88.98;98788.63;5102308;28;20204;-77
2024/01/18 10:52:38;;;;;;;33.23;23.37;;;;;;;0.23;87.94;98799.72;5103655;28;20275;-77
2024/01/18 10:55:08;;;;;;;24.53;20.17;;;;;;;0.26;88.27;98805.69;5096812;28;20359;-78
2024/01/18 10:57:35;;;;;;;26.53;20.27;;;;;;;0.23;87.64;98821.09;5101104;28;20232;-77
2024/01/18 11:00:01;;;;;;;26.70;20.57;;;;;;;0.31;87.10;98833.91;5094820;28;20271;-78
2024/01/18 11:02:30;;;;;;;23.73;18.93;;;;;;;0.39;86.19;98843.25;5104109;28;20225;-77
2024/01/18 11:04:56;;;;;;;22.30;19.47;;;;;;;0.50;85.83;98856.06;5103489;28;20226;-78
2024/01/18 11:07:24;;;;;;;21.30;18.93;;;;;;;0.42;87.02;98862.97;5093375;28;20219;-77
2024/01/18 11:09:51;;;;;;;19.03;17.07;;;;;;;0.55;86.28;98869.72;5085764;28;20249;-78
2024/01/18 11:12:22;;;;;;;18.87;17.00;;;;;;;0.45;86.31;98870.63;5093433;28;20281;-78
2024/01/18 11:14:49;;;;;;;18.33;16.20;;;;;;;0.48;86.48;98877.50;5093326;28;20202;-78
2024/01/18 11:17:17;;;;;;;18.13;15.70;;;;;;;0.59;87.05;98863.75;5092651;28;20942;-78
2024/01/18 11:19:45;;;;;;;24.07;16.03;;;;;;;0.67;87.14;98871.41;5092444;28;20200;-78
2024/01/18 11:22:25;;;;;;;17.90;16.17;;;;;;;0.88;86.97;98875.59;5093242;28;20215;-78
2024/01/18 11:25:00;;;;;;;19.30;17.60;;;;;;;0.77;86.49;98895.31;5087024;28;20204;-80